createdAt,value
2019-05-15T00:02:38.714Z,9.82
2019-05-15T00:07:39.059Z,9.8
2019-05-15T00:12:39.434Z,9.79
2019-05-15T00:17:43.722Z,9.7
2019-05-15T00:22:43.840Z,9.62
2019-05-15T00:27:43.832Z,9.52
2019-05-15T00:32:43.949Z,9.46
2019-05-15T00:37:44.062Z,9.39
2019-05-15T00:42:44.046Z,9.34
2019-05-15T00:47:44.234Z,9.2
2019-05-15T00:52:44.242Z,9.11
2019-05-15T00:57:44.605Z,9.14
2019-05-15T01:02:44.602Z,9.14
2019-05-15T01:07:44.743Z,9.09
2019-05-15T01:12:53.126Z,9.01
2019-05-15T01:17:53.243Z,9.01
2019-05-15T01:22:53.267Z,8.98
2019-05-15T01:27:53.559Z,8.92
2019-05-15T01:32:53.594Z,8.87
2019-05-15T01:37:53.682Z,8.84
2019-05-15T01:42:54.109Z,8.76
2019-05-15T01:47:53.842Z,8.74
2019-05-15T01:52:53.964Z,8.62
2019-05-15T01:57:54.232Z,8.55
2019-05-15T02:02:53.955Z,8.44
2019-05-15T02:08:00.370Z,8.39
2019-05-15T02:13:00.410Z,8.35
2019-05-15T02:18:00.678Z,8.33
2019-05-15T02:23:00.794Z,8.29
2019-05-15T02:28:00.778Z,8.21
2019-05-15T02:33:00.895Z,8.09
2019-05-15T02:38:01.191Z,7.85
2019-05-15T02:43:01.002Z,7.9
2019-05-15T02:48:01.039Z,7.78
2019-05-15T02:53:01.264Z,7.73
2019-05-15T02:58:01.474Z,7.66
2019-05-15T03:03:09.415Z,7.55
2019-05-15T03:08:09.493Z,7.59
2019-05-15T03:13:09.668Z,7.5
2019-05-15T03:18:09.500Z,7.27
2019-05-15T03:23:09.508Z,7.29
2019-05-15T03:28:10.402Z,7.13
2019-05-15T03:33:11.355Z,7.09
2019-05-15T03:38:09.230Z,7.06
2019-05-15T03:43:09.039Z,7.01
2019-05-15T03:48:09.229Z,6.94
2019-05-15T03:53:10.077Z,6.86
2019-05-15T03:58:21.361Z,6.64
2019-05-15T04:03:20.132Z,6.63
2019-05-15T04:08:19.422Z,6.6
2019-05-15T04:13:19.450Z,6.71
2019-05-15T04:18:19.838Z,6.74
2019-05-15T04:23:19.048Z,6.65
2019-05-15T04:28:19.224Z,6.68
2019-05-15T04:33:19.839Z,6.75
2019-05-15T04:38:19.491Z,6.77
2019-05-15T04:43:19.370Z,6.56
2019-05-15T04:48:19.931Z,6.66
2019-05-15T04:53:22.633Z,6.7
2019-05-15T04:58:22.672Z,6.68
2019-05-15T05:03:22.903Z,6.71
2019-05-15T05:08:22.970Z,6.74
2019-05-15T05:13:23.006Z,6.88
2019-05-15T05:18:23.122Z,6.88
2019-05-15T05:23:23.166Z,7.02
2019-05-15T05:28:23.281Z,7.14
2019-05-15T05:33:23.418Z,7.33
2019-05-15T05:38:23.402Z,7.41
2019-05-15T05:43:23.522Z,7.57
2019-05-15T05:48:29.803Z,7.52
2019-05-15T05:53:31.747Z,7.73
2019-05-15T05:58:31.891Z,7.79
2019-05-15T06:03:32.007Z,8.14
2019-05-15T06:08:32.050Z,8.18
2019-05-15T06:13:32.183Z,8.41
2019-05-15T06:18:32.373Z,8.7
2019-05-15T06:23:35.296Z,8.94
2019-05-15T06:28:32.464Z,9.06
2019-05-15T06:33:32.659Z,9.17
2019-05-15T06:38:32.864Z,9.28
2019-05-15T06:43:39.131Z,9.46
2019-05-15T06:48:39.164Z,9.49
2019-05-15T06:53:39.171Z,9.7
2019-05-15T06:58:39.286Z,9.88
2019-05-15T07:03:39.576Z,10.2
2019-05-15T07:08:39.478Z,10.17
2019-05-15T07:13:39.497Z,10.26
2019-05-15T07:18:39.725Z,10.59
2019-05-15T07:23:40.355Z,10.29
2019-05-15T07:28:40.378Z,10.73
2019-05-15T07:33:43.516Z,10.83
2019-05-15T07:38:44.807Z,10.92
2019-05-15T07:43:44.843Z,11.03
2019-05-15T07:48:45.126Z,11.21
2019-05-15T07:53:45.518Z,11.65
2019-05-15T07:58:52.053Z,11.65
2019-05-15T08:03:56.344Z,11.7
2019-05-15T08:08:47.966Z,11.91
2019-05-15T08:13:45.798Z,12.03
2019-05-15T08:18:48.236Z,12.17
2019-05-15T08:23:48.223Z,12.36
2019-05-15T08:28:48.496Z,12.48
2019-05-15T08:33:52.495Z,12.32
2019-05-15T08:38:52.530Z,12.76
2019-05-15T08:43:52.699Z,12.71
2019-05-15T08:48:53.502Z,13.31
2019-05-15T08:53:53.641Z,13.25
2019-05-15T08:58:53.622Z,13.6
2019-05-15T09:03:53.798Z,13.6
2019-05-15T09:08:53.770Z,13.69
2019-05-15T09:13:54.391Z,14.03
2019-05-15T09:18:53.918Z,14.28
2019-05-15T09:23:54.034Z,14.28
2019-05-15T09:28:58.532Z,14.14
2019-05-15T09:33:58.658Z,14.03
2019-05-15T09:38:58.644Z,14.39
2019-05-15T09:43:58.521Z,14.39
2019-05-15T09:48:59.259Z,13.64
2019-05-15T09:53:59.767Z,14.16
2019-05-15T09:58:59.772Z,14.43
2019-05-15T10:03:59.810Z,14.63
2019-05-15T10:08:59.925Z,14.63
2019-05-15T10:13:59.946Z,14.67
2019-05-15T10:19:00.062Z,15.12
2019-05-15T10:24:09.298Z,14.82
2019-05-15T10:29:08.939Z,15.16
2019-05-15T10:34:08.861Z,14.94
2019-05-15T10:39:08.332Z,15.09
2019-05-15T10:44:09.047Z,15.77
2019-05-15T10:49:08.571Z,15.51
2019-05-15T10:54:08.487Z,15.16
2019-05-15T10:59:08.461Z,15.31
2019-05-15T11:04:09.064Z,16.19
2019-05-15T11:09:08.383Z,15.24
2019-05-15T11:14:09.041Z,14.85
2019-05-15T11:19:12.040Z,15.27
2019-05-15T11:24:12.078Z,14.96
2019-05-15T11:29:12.194Z,14.94
2019-05-15T11:34:13.207Z,15.84
2019-05-15T11:39:13.249Z,15.43
2019-05-15T11:44:13.365Z,15.59
2019-05-15T11:49:13.376Z,16.16
2019-05-15T11:54:13.492Z,16.32
2019-05-15T11:59:13.534Z,16.59
2019-05-15T12:04:26.605Z,17.02
2019-05-15T12:09:13.803Z,16.78
2019-05-15T12:14:20.313Z,16.77
2019-05-15T12:19:20.082Z,16.75
2019-05-15T12:24:20.133Z,16.77
2019-05-15T12:29:20.176Z,16.5
2019-05-15T12:34:20.538Z,16.58
2019-05-15T12:39:21.893Z,17.12
2019-05-15T13:04:21.685Z,16.18
2019-05-15T13:09:27.969Z,16.08
2019-05-15T13:14:28.434Z,16.73
2019-05-15T13:19:28.543Z,16.67
2019-05-15T13:24:28.358Z,16.34
2019-05-15T13:29:28.921Z,16.64
2019-05-15T13:34:30.498Z,16.81
2019-05-15T13:39:28.561Z,17.39
2019-05-15T13:44:29.290Z,16.87
2019-05-15T13:49:28.585Z,17.1
2019-05-15T13:54:28.785Z,17.04
2019-05-15T13:59:28.825Z,16.95
2019-05-15T14:04:38.614Z,16.92
2019-05-15T14:09:44.213Z,16.77
2019-05-15T14:14:39.464Z,16.89
2019-05-15T14:19:39.566Z,16.82
2019-05-15T14:24:39.712Z,16.32
2019-05-15T14:29:39.750Z,16.56
2019-05-15T14:34:39.936Z,16.5
2019-05-15T14:39:39.910Z,16.51
2019-05-15T14:44:40.039Z,16.42
2019-05-15T14:49:44.435Z,16.49
2019-05-15T14:54:40.253Z,16.72
2019-05-15T14:59:48.650Z,16.78
2019-05-15T15:04:48.513Z,16.14
2019-05-15T15:09:47.746Z,16.38
2019-05-15T15:14:48.517Z,16.34
2019-05-15T15:19:51.322Z,16.4
2019-05-15T15:24:48.194Z,16.69
2019-05-15T15:29:48.265Z,16.63
2019-05-15T15:34:47.924Z,16.32
2019-05-15T15:39:48.141Z,16.47
2019-05-15T15:44:48.797Z,16.08
2019-05-15T15:49:47.904Z,16.44
2019-05-15T15:54:53.664Z,16.17
2019-05-15T15:59:53.701Z,16.23
2019-05-15T16:04:53.739Z,16.21
2019-05-15T16:09:53.929Z,16.32
2019-05-15T16:14:57.804Z,16.32
2019-05-15T16:19:55.684Z,16.29
2019-05-15T16:24:58.691Z,16.28
2019-05-15T16:29:58.374Z,16.2
2019-05-15T16:34:58.614Z,16.22
2019-05-15T16:39:57.830Z,16.12
2019-05-15T16:44:58.406Z,16.16
2019-05-15T16:50:03.604Z,16.05
2019-05-15T16:55:03.723Z,16.09
2019-05-15T17:00:03.849Z,15.85
2019-05-15T17:05:03.796Z,16.0
2019-05-15T17:10:03.872Z,16.02
2019-05-15T17:15:04.107Z,15.87
2019-05-15T17:20:04.240Z,15.66
2019-05-15T17:25:04.363Z,15.62
2019-05-15T17:30:04.401Z,15.51
2019-05-15T17:35:04.520Z,15.32
2019-05-15T17:40:04.540Z,15.45
2019-05-15T17:45:10.897Z,15.36
2019-05-15T17:50:10.894Z,15.26
2019-05-15T17:55:11.035Z,15.06
2019-05-15T18:00:12.383Z,14.93
2019-05-15T18:05:11.157Z,14.93
2019-05-15T18:10:11.129Z,14.82
2019-05-15T18:15:11.521Z,14.57
2019-05-15T18:20:11.594Z,14.56
2019-05-15T18:25:11.636Z,14.3
2019-05-15T18:30:11.678Z,14.13
2019-05-15T18:35:11.799Z,14.01
2019-05-15T18:40:18.895Z,13.88
2019-05-15T18:45:18.379Z,13.59
2019-05-15T18:50:18.320Z,13.6
2019-05-15T18:55:18.756Z,13.68
2019-05-15T19:00:20.123Z,13.67
2019-05-15T19:05:20.242Z,13.7
2019-05-15T19:10:20.278Z,13.55
2019-05-15T19:15:20.653Z,13.54
2019-05-15T19:20:20.824Z,13.63
2019-05-15T19:25:20.864Z,13.34
2019-05-15T19:30:20.905Z,13.45
2019-05-15T19:35:28.004Z,13.54
2019-05-15T19:40:28.292Z,13.32
2019-05-15T19:45:28.135Z,13.05
2019-05-15T19:50:28.671Z,12.92
2019-05-15T19:55:27.506Z,13.02
2019-05-15T20:00:28.430Z,12.94
2019-05-15T20:05:28.901Z,12.65
2019-05-15T20:10:29.187Z,12.44
2019-05-15T20:15:28.510Z,12.37
2019-05-15T20:20:28.592Z,12.31
2019-05-15T20:25:28.477Z,12.23
2019-05-15T20:30:34.797Z,12.39
2019-05-15T20:35:34.837Z,12.24
2019-05-15T20:40:35.030Z,12.07
2019-05-15T20:45:35.068Z,11.94
2019-05-15T20:50:35.190Z,11.78
2019-05-15T20:55:35.306Z,11.76
2019-05-15T21:00:35.347Z,11.47
2019-05-15T21:05:35.544Z,11.36
2019-05-15T21:10:35.571Z,11.24
2019-05-15T21:15:35.614Z,11.13
2019-05-15T21:20:37.474Z,11.11
2019-05-15T21:25:41.979Z,11.07
2019-05-15T21:30:42.025Z,10.84
2019-05-15T21:35:42.070Z,10.78
2019-05-15T21:40:42.316Z,10.6
2019-05-15T21:45:42.363Z,10.62
2019-05-15T21:50:42.627Z,10.65
2019-05-15T21:55:42.642Z,10.57
2019-05-15T22:00:43.451Z,10.41
2019-05-15T22:05:43.488Z,10.35
2019-05-15T22:10:43.613Z,10.18
2019-05-15T22:15:43.736Z,10.2
2019-05-15T22:20:52.461Z,10.04
2019-05-15T22:25:52.259Z,9.97
2019-05-15T22:30:52.558Z,9.93
2019-05-15T22:35:53.928Z,10.01
2019-05-15T22:40:53.915Z,9.9
2019-05-15T22:45:54.034Z,9.77
2019-05-15T22:50:54.066Z,9.65
2019-05-15T22:55:54.096Z,9.6
2019-05-15T23:00:54.219Z,9.45
2019-05-15T23:05:54.261Z,9.41
2019-05-15T23:10:54.371Z,9.43
2019-05-15T23:16:00.671Z,9.27
2019-05-15T23:21:00.700Z,9.27
2019-05-15T23:26:00.868Z,9.2
2019-05-15T23:31:01.768Z,9.16
2019-05-15T23:36:01.787Z,9.18
2019-05-15T23:41:01.829Z,9.1
2019-05-15T23:46:02.236Z,9.1
2019-05-15T23:51:01.976Z,9.03
2019-05-15T23:56:02.107Z,8.97
